M/y A.b.normal — 2DLI6 — position and weather

sailwx.info

Track history (hours):
 
Tides and Currents Weather Stations Pressure Air Temp Water Temp Dewpoint Dewpoint Depression Visibility Wind Speed Wind Dir Waves Ship Positions

M/y A.b.normal

Last reported at 2016-May-24 09:24 UTC. Time now 2016-May-31 03:58 UTC.
Position N 38°50' E 001°22'.

Length 28 m; draft 2.8 m.

Type: Pleasure craft. MMSI: 235079977.

Date/timePositionNaut miles runAvg speedWind from/ knotsBaromVisibWave heightAir tempDewpointWater temp
2016-May-24 09:24N 38°50' E 001°22'  
2016-May-16 13:33N 38°22' E 000°46'1110.7
2016-May-16 12:33N 38°15' E 000°35'1110.5
2016-May-16 11:30N 38°07' E 000°25'1210.9
2016-May-16 10:26N 37°60' E 000°14'3311.1
2016-May-16 07:26N 37°39' W 000°20'1010.8
2016-May-16 06:33N 37°33' W 000°29'1110.7
2016-May-16 05:30N 37°27' W 000°41'1010.5
2016-May-16 04:32N 37°20' W 000°51'  
Track history (hours):
 
Tides and Currents Weather Stations Pressure Air Temp Water Temp Dewpoint Dewpoint Depression Visibility Wind Speed Wind Dir Waves Ship Positions

M/y A.b.normal

Last reported at 2016-May-24 09:24 UTC. Time now 2016-May-31 03:58 UTC.
Position N 38°50' E 001°22'.

Length 28 m; draft 2.8 m.

Type: Pleasure craft. MMSI: 235079977.

Date/timePositionNaut miles runAvg speedWind from/ knotsBaromVisibWave heightAir tempDewpointWater temp
2016-May-24 09:24N 38°50' E 001°22'  
2016-May-16 13:33N 38°22' E 000°46'1110.7
2016-May-16 12:33N 38°15' E 000°35'1110.5
2016-May-16 11:30N 38°07' E 000°25'1210.9
2016-May-16 10:26N 37°60' E 000°14'3311.1
2016-May-16 07:26N 37°39' W 000°20'1010.8
2016-May-16 06:33N 37°33' W 000°29'1110.7
2016-May-16 05:30N 37°27' W 000°41'1010.5
2016-May-16 04:32N 37°20' W 000°51'  

Dump ship's entire track history